Time;durP1;ratioP1;P1;durP2;ratioP2;P2;SDS_P1;SDS_P2;PMS_P1;PMS_P2;Temp;Humidity;BMP_temperature;BMP_pressure;BME280_temperature;BME280_humidity;BME280_pressure;Samples;Min_cycle;Max_cycle;Signal;HPM_P1;HPM_P2
2022/10/05 00:01:14;;;;;;;;;;;;;;;;;;5090911;28;19985;-72
2022/10/05 00:03:41;;;;;;;;;;;;;;;;;;5072318;28;19928;-71
2022/10/05 00:06:08;;;;;;;;;;;;;;;;;;5088659;28;19924;-71
2022/10/05 00:08:35;;;;;;;;;;;;;;;;;;5095133;28;20310;-71
2022/10/05 00:11:02;;;;;;;;;;;;;;;;;;5089351;28;19935;-71
2022/10/05 00:13:29;;;;;;;;;;;;;;;;;;5088688;28;20401;-71
2022/10/05 00:15:56;;;;;;;;;;;;;;;;;;5088538;28;19989;-71
2022/10/05 00:18:23;;;;;;;;;;;;;;;;;;5086750;28;19977;-71
2022/10/05 00:20:50;;;;;;;;;;;;;;;;;;5088669;28;19966;-71
2022/10/05 00:23:18;;;;;;;;;;;;;;;;;;5088011;28;19981;-71
2022/10/05 00:25:45;;;;;;;;;;;;;;;;;;5084162;28;19924;-71
2022/10/05 00:28:12;;;;;;;;;;;;;;;;;;5090288;28;19935;-70
2022/10/05 00:30:39;;;;;;;;;;;;;;;;;;5089490;28;20348;-71
2022/10/05 00:33:06;;;;;;;;;;;;;;;;;;5093359;28;19939;-71
2022/10/05 00:35:33;;;;;;;;;;;;;;;;;;5090177;28;19928;-71
2022/10/05 00:38:00;;;;;;;;;;;;;;;;;;5090371;28;19985;-71
2022/10/05 00:40:27;;;;;;;;;;;;;;;;;;5087457;28;20390;-70
2022/10/05 00:42:54;;;;;;;;;;;;;;;;;;5090701;28;19932;-71
2022/10/05 00:45:20;;;;;;;;;;;;;;;;;;5072617;28;19928;-70
2022/10/05 00:47:47;;;;;;;;;;;;;;;;;;5088292;28;20594;-71
2022/10/05 00:50:16;;;;;;;;;;;;;;;;;;5091420;28;19924;-71
2022/10/05 00:52:43;;;;;;;;;;;;;;;;;;5088458;28;19928;-71
2022/10/05 00:55:10;;;;;;;;;;;;;;;;;;5088876;28;19974;-71
2022/10/05 00:57:37;;;;;;;;;;;;;;;;;;5086580;28;19924;-71
2022/10/05 01:00:04;;;;;;;;;;;;;;;;;;5089958;28;19935;-71
2022/10/05 01:05:07;;;;;;;;;;;;;;;;;;5273196;22;19941;-70
2022/10/05 01:07:34;;;;;;;;;;;;;;;;;;5024880;28;19971;-70
2022/10/05 01:10:01;;;;;;;;;;;;;;;;;;5033750;28;19929;-70
2022/10/05 01:12:28;;;;;;;;;;;;;;;;;;5022014;28;19929;-70
2022/10/05 01:14:55;;;;;;;;;;;;;;;;;;5034432;28;19933;-70
2022/10/05 01:17:22;;;;;;;;;;;;;;;;;;5027042;28;19933;-71
2022/10/05 01:19:49;;;;;;;;;;;;;;;;;;5025084;28;19935;-71
2022/10/05 01:22:16;;;;;;;;;;;;;;;;;;5026400;28;19951;-71
2022/10/05 01:24:43;;;;;;;;;;;;;;;;;;5033708;28;19932;-70
2022/10/05 01:27:10;;;;;;;;;;;;;;;;;;5030518;28;19933;-71
2022/10/05 01:29:37;;;;;;;;;;;;;;;;;;5029040;28;19936;-70
2022/10/05 01:32:04;;;;;;;;;;;;;;;;;;5024983;28;19991;-70
2022/10/05 01:34:31;;;;;;;;;;;;;;;;;;5024657;28;19929;-71
2022/10/05 01:36:58;;;;;;;;;;;;;;;;;;5029172;28;19933;-70
2022/10/05 01:39:25;;;;;;;;;;;;;;;;;;5027581;28;19956;-71
2022/10/05 01:41:52;;;;;;;;;;;;;;;;;;5029595;28;20406;-70
2022/10/05 01:44:19;;;;;;;;;;;;;;;;;;5025407;28;19980;-71
2022/10/05 01:46:46;;;;;;;;;;;;;;;;;;5032299;28;19924;-71
2022/10/05 01:49:13;;;;;;;;;;;;;;;;;;5026496;28;19952;-71
2022/10/05 01:51:40;;;;;;;;;;;;;;;;;;5027193;28;19929;-71
2022/10/05 01:54:07;;;;;;;;;;;;;;;;;;5029054;28;19935;-71
2022/10/05 01:56:34;;;;;;;;;;;;;;;;;;5028692;28;19988;-70
2022/10/05 01:59:01;;;;;;;;;;;;;;;;;;5029870;28;20402;-71
2022/10/05 02:01:28;;;;;;;;;;;;;;;;;;5028034;28;19929;-70
2022/10/05 02:03:55;;;;;;;;;;;;;;;;;;5033232;28;19924;-71
2022/10/05 02:06:22;;;;;;;;;;;;;;;;;;5025350;28;20379;-71
2022/10/05 02:08:50;;;;;;;;;;;;;;;;;;5035998;28;19944;-71
2022/10/05 02:11:17;;;;;;;;;;;;;;;;;;5031637;28;20745;-71
2022/10/05 02:13:44;;;;;;;;;;;;;;;;;;5024849;28;19929;-71
2022/10/05 02:16:11;;;;;;;;;;;;;;;;;;5024488;28;19929;-70
2022/10/05 02:18:38;;;;;;;;;;;;;;;;;;5025163;28;19961;-71
2022/10/05 02:21:05;;;;;;;;;;;;;;;;;;5024600;28;19933;-70
2022/10/05 02:23:32;;;;;;;;;;;;;;;;;;5030733;28;19983;-70
2022/10/05 02:25:59;;;;;;;;;;;;;;;;;;5025301;28;20342;-70
2022/10/05 02:28:26;;;;;;;;;;;;;;;;;;5026745;28;19937;-70
2022/10/05 02:30:53;;;;;;;;;;;;;;;;;;5025279;28;19925;-72
2022/10/05 02:33:20;;;;;;;;;;;;;;;;;;5027582;28;19932;-71
2022/10/05 02:35:47;;;;;;;;;;;;;;;;;;5028759;28;20338;-71
2022/10/05 02:38:14;;;;;;;;;;;;;;;;;;5029273;28;19975;-71
2022/10/05 02:40:41;;;;;;;;;;;;;;;;;;5027392;28;19971;-71
2022/10/05 02:43:08;;;;;;;;;;;;;;;;;;5030059;28;19948;-71
2022/10/05 02:45:35;;;;;;;;;;;;;;;;;;5030611;28;19932;-71
2022/10/05 02:48:02;;;;;;;;;;;;;;;;;;5031564;28;19937;-71
2022/10/05 02:50:29;;;;;;;;;;;;;;;;;;5030253;28;19929;-71
2022/10/05 02:52:56;;;;;;;;;;;;;;;;;;5026163;28;19932;-70
2022/10/05 02:55:23;;;;;;;;;;;;;;;;;;5032390;28;20025;-71
2022/10/05 02:57:50;;;;;;;;;;;;;;;;;;5028589;28;19965;-70
2022/10/05 03:00:17;;;;;;;;;;;;;;;;;;5030992;28;19939;-71
2022/10/05 03:02:44;;;;;;;;;;;;;;;;;;5034321;28;19933;-71
2022/10/05 03:05:11;;;;;;;;;;;;;;;;;;5033876;28;19980;-71
2022/10/05 03:07:38;;;;;;;;;;;;;;;;;;5037849;28;19942;-70
2022/10/05 03:10:05;;;;;;;;;;;;;;;;;;5027732;28;19929;-71
2022/10/05 03:12:32;;;;;;;;;;;;;;;;;;5021601;28;19975;-71
2022/10/05 03:14:59;;;;;;;;;;;;;;;;;;5027520;28;19941;-70
2022/10/05 03:17:26;;;;;;;;;;;;;;;;;;5030770;28;19983;-71
2022/10/05 03:19:54;;;;;;;;;;;;;;;;;;5028712;28;20003;-70
2022/10/05 03:22:20;;;;;;;;;;;;;;;;;;5029597;28;20036;-71
2022/10/05 03:24:47;;;;;;;;;;;;;;;;;;5028215;28;20011;-71
2022/10/05 03:27:14;;;;;;;;;;;;;;;;;;5027991;28;19933;-70
2022/10/05 03:29:41;;;;;;;;;;;;;;;;;;5030291;28;19936;-71
2022/10/05 03:32:08;;;;;;;;;;;;;;;;;;5029579;28;19979;-71
2022/10/05 03:34:35;;;;;;;;;;;;;;;;;;5030035;28;19999;-71
2022/10/05 03:37:02;;;;;;;;;;;;;;;;;;5030500;28;20364;-71
2022/10/05 03:39:29;;;;;;;;;;;;;;;;;;5030664;28;19936;-71
2022/10/05 03:41:57;;;;;;;;;;;;;;;;;;5030624;28;19933;-71
2022/10/05 03:44:24;;;;;;;;;;;;;;;;;;5029566;28;20412;-70
2022/10/05 03:46:51;;;;;;;;;;;;;;;;;;5031433;28;19933;-71
2022/10/05 03:49:17;;;;;;;;;;;;;;;;;;5030773;28;19929;-70
2022/10/05 03:51:44;;;;;;;;;;;;;;;;;;5035447;28;19929;-70
2022/10/05 03:54:13;;;;;;;;;;;;;;;;;;5029396;28;20167;-71
2022/10/05 03:56:40;;;;;;;;;;;;;;;;;;5028769;28;19936;-71
2022/10/05 03:59:07;;;;;;;;;;;;;;;;;;5028469;28;19929;-70
2022/10/05 04:01:34;;;;;;;;;;;;;;;;;;5031571;28;19929;-70
2022/10/05 04:04:02;;;;;;;;;;;;;;;;;;5029697;28;19929;-70
2022/10/05 04:06:29;;;;;;;;;;;;;;;;;;5027938;28;19929;-70
2022/10/05 04:08:56;;;;;;;;;;;;;;;;;;5030772;28;19932;-70
2022/10/05 04:11:23;;;;;;;;;;;;;;;;;;5033068;28;19926;-70
2022/10/05 04:13:50;;;;;;;;;;;;;;;;;;5025785;28;19932;-71
2022/10/05 04:16:17;;;;;;;;;;;;;;;;;;5027718;28;19983;-70
2022/10/05 04:18:44;;;;;;;;;;;;;;;;;;5028262;28;19929;-70
2022/10/05 04:21:12;;;;;;;;;;;;;;;;;;5024439;28;19963;-71
2022/10/05 04:23:39;;;;;;;;;;;;;;;;;;5022257;28;20003;-70
2022/10/05 04:26:06;;;;;;;;;;;;;;;;;;5026587;28;20438;-70
2022/10/05 04:28:33;;;;;;;;;;;;;;;;;;5023348;28;19929;-71
2022/10/05 04:31:00;;;;;;;;;;;;;;;;;;5030139;28;19937;-71
2022/10/05 04:33:27;;;;;;;;;;;;;;;;;;5030846;28;19926;-70
2022/10/05 04:35:54;;;;;;;;;;;;;;;;;;5026024;28;19936;-71
2022/10/05 04:38:21;;;;;;;;;;;;;;;;;;5029214;28;20311;-70
2022/10/05 04:40:48;;;;;;;;;;;;;;;;;;5025366;28;19990;-70
2022/10/05 04:43:15;;;;;;;;;;;;;;;;;;5026267;28;20383;-70
2022/10/05 04:45:42;;;;;;;;;;;;;;;;;;5031645;28;19929;-71
2022/10/05 04:48:09;;;;;;;;;;;;;;;;;;5028981;28;19929;-70
2022/10/05 04:50:36;;;;;;;;;;;;;;;;;;5028377;28;19936;-70
2022/10/05 04:53:03;;;;;;;;;;;;;;;;;;5022567;28;19936;-70
2022/10/05 04:55:30;;;;;;;;;;;;;;;;;;5025914;28;19940;-70
2022/10/05 04:57:57;;;;;;;;;;;;;;;;;;5027495;28;19948;-71
2022/10/05 05:00:24;;;;;;;;;;;;;;;;;;5029827;28;19925;-70
2022/10/05 05:02:51;;;;;;;;;;;;;;;;;;5027769;28;19948;-70
2022/10/05 05:05:18;;;;;;;;;;;;;;;;;;5024733;28;20295;-71
2022/10/05 05:07:45;;;;;;;;;;;;;;;;;;5026188;28;19929;-70
2022/10/05 05:10:12;;;;;;;;;;;;;;;;;;5024103;28;19929;-71
2022/10/05 05:12:39;;;;;;;;;;;;;;;;;;5021661;28;20730;-71
2022/10/05 05:15:06;;;;;;;;;;;;;;;;;;5021233;28;19936;-72
2022/10/05 05:17:33;;;;;;;;;;;;;;;;;;5018324;28;20354;-70
2022/10/05 05:20:00;;;;;;;;;;;;;;;;;;5024003;28;19932;-70
2022/10/05 05:22:27;;;;;;;;;;;;;;;;;;5024222;28;19925;-71
2022/10/05 05:24:54;;;;;;;;;;;;;;;;;;5025571;28;19972;-70
2022/10/05 05:27:21;;;;;;;;;;;;;;;;;;5028119;28;20028;-72
2022/10/05 05:29:49;;;;;;;;;;;;;;;;;;5025733;28;20656;-71
2022/10/05 05:32:16;;;;;;;;;;;;;;;;;;5027596;28;20393;-70
2022/10/05 05:34:43;;;;;;;;;;;;;;;;;;5021351;28;19944;-71
2022/10/05 05:37:10;;;;;;;;;;;;;;;;;;5027916;28;19929;-71
2022/10/05 05:39:37;;;;;;;;;;;;;;;;;;5025019;28;19929;-71
2022/10/05 05:42:04;;;;;;;;;;;;;;;;;;5026509;28;20531;-70
2022/10/05 05:44:31;;;;;;;;;;;;;;;;;;5025973;28;19933;-71
2022/10/05 05:46:58;;;;;;;;;;;;;;;;;;5023230;28;19940;-71
2022/10/05 05:49:25;;;;;;;;;;;;;;;;;;5028741;28;20525;-70
2022/10/05 05:51:52;;;;;;;;;;;;;;;;;;5023790;28;19971;-70
2022/10/05 05:54:19;;;;;;;;;;;;;;;;;;5029579;28;19932;-71
2022/10/05 05:56:46;;;;;;;;;;;;;;;;;;5026671;28;19925;-70
2022/10/05 05:59:13;;;;;;;;;;;;;;;;;;5030353;28;19933;-70
2022/10/05 06:01:40;;;;;;;;;;;;;;;;;;5025564;28;20427;-70
2022/10/05 06:04:07;;;;;;;;;;;;;;;;;;5028431;28;19962;-71
2022/10/05 06:06:34;;;;;;;;;;;;;;;;;;5029696;28;19932;-71
2022/10/05 06:09:02;;;;;;;;;;;;;;;;;;5029190;28;19967;-70
2022/10/05 06:11:29;;;;;;;;;;;;;;;;;;5024901;28;19929;-71
2022/10/05 06:13:56;;;;;;;;;;;;;;;;;;5029668;28;19936;-71
2022/10/05 06:16:23;;;;;;;;;;;;;;;;;;5023951;28;19980;-71
2022/10/05 06:18:50;;;;;;;;;;;;;;;;;;5027533;28;19929;-71
2022/10/05 06:21:17;;;;;;;;;;;;;;;;;;5028181;28;19948;-71
2022/10/05 06:23:44;;;;;;;;;;;;;;;;;;5029399;28;19951;-71
2022/10/05 06:26:11;;;;;;;;;;;;;;;;;;5026152;28;19936;-71
2022/10/05 06:28:38;;;;;;;;;;;;;;;;;;5029732;28;19928;-71
2022/10/05 06:31:05;;;;;;;;;;;;;;;;;;5026058;28;19991;-71
2022/10/05 06:33:32;;;;;;;;;;;;;;;;;;5028505;28;19929;-70
2022/10/05 06:35:59;;;;;;;;;;;;;;;;;;5027955;28;19987;-70
2022/10/05 06:38:26;;;;;;;;;;;;;;;;;;5023906;28;20467;-71
2022/10/05 06:40:54;;;;;;;;;;;;;;;;;;5029777;28;19933;-70
2022/10/05 06:43:21;;;;;;;;;;;;;;;;;;5030717;28;19929;-71
2022/10/05 06:45:48;;;;;;;;;;;;;;;;;;5027506;28;19925;-70
2022/10/05 06:48:15;;;;;;;;;;;;;;;;;;5029869;28;19929;-71
2022/10/05 06:50:42;;;;;;;;;;;;;;;;;;5028274;28;19936;-70
2022/10/05 06:53:09;;;;;;;;;;;;;;;;;;5026354;28;19929;-70
2022/10/05 06:55:36;;;;;;;;;;;;;;;;;;5026124;28;19929;-70
2022/10/05 06:58:03;;;;;;;;;;;;;;;;;;5026337;28;20375;-71
2022/10/05 07:00:30;;;;;;;;;;;;;;;;;;5031423;28;19925;-71
2022/10/05 07:02:57;;;;;;;;;;;;;;;;;;5032534;28;20382;-70
2022/10/05 07:05:24;;;;;;;;;;;;;;;;;;5029801;28;19929;-70
2022/10/05 07:07:51;;;;;;;;;;;;;;;;;;5029160;28;19925;-71
2022/10/05 07:10:18;;;;;;;;;;;;;;;;;;5020515;28;20391;-71
2022/10/05 07:12:45;;;;;;;;;;;;;;;;;;5026703;28;19937;-71
2022/10/05 07:15:12;;;;;;;;;;;;;;;;;;5025056;28;20268;-70
2022/10/05 07:17:41;;;;;;;;;;;;;;;;;;5022268;28;19929;-70
2022/10/05 07:20:08;;;;;;;;;;;;;;;;;;5026010;28;19931;-71
2022/10/05 07:22:35;;;;;;;;;;;;;;;;;;5028397;28;19932;-70
2022/10/05 07:25:02;;;;;;;;;;;;;;;;;;5028765;28;19951;-71
2022/10/05 07:27:29;;;;;;;;;;;;;;;;;;5028326;28;19929;-71
2022/10/05 07:29:56;;;;;;;;;;;;;;;;;;5029428;28;19929;-71
2022/10/05 07:32:23;;;;;;;;;;;;;;;;;;5028037;28;19940;-71
2022/10/05 07:34:50;;;;;;;;;;;;;;;;;;5027874;28;19925;-70
2022/10/05 07:40:02;;;;;;;;;;;;;;;;;;5029352;28;19929;-70
2022/10/05 07:42:29;;;;;;;;;;;;;;;;;;5026787;28;20020;-70
2022/10/05 07:44:56;;;;;;;;;;;;;;;;;;5031969;28;19984;-72
2022/10/05 07:47:23;;;;;;;;;;;;;;;;;;5031187;28;19929;-70
2022/10/05 07:49:50;;;;;;;;;;;;;;;;;;5029001;28;19929;-71
2022/10/05 07:52:17;;;;;;;;;;;;;;;;;;5026381;28;19995;-70
2022/10/05 07:54:44;;;;;;;;;;;;;;;;;;5030224;28;19933;-70
2022/10/05 07:57:11;;;;;;;;;;;;;;;;;;5030464;28;20299;-71
2022/10/05 07:59:38;;;;;;;;;;;;;;;;;;5031666;28;19925;-71
2022/10/05 08:02:05;;;;;;;;;;;;;;;;;;5031348;28;19956;-70
2022/10/05 08:04:32;;;;;;;;;;;;;;;;;;5027769;28;20291;-70
2022/10/05 08:06:59;;;;;;;;;;;;;;;;;;5027905;28;19936;-71
2022/10/05 08:09:26;;;;;;;;;;;;;;;;;;5032382;28;19929;-71
2022/10/05 08:11:53;;;;;;;;;;;;;;;;;;5031648;28;20609;-71
2022/10/05 08:14:20;;;;;;;;;;;;;;;;;;5031384;28;19972;-71
2022/10/05 08:16:48;;;;;;;;;;;;;;;;;;5028829;28;19933;-71
2022/10/05 08:19:15;;;;;;;;;;;;;;;;;;5033356;28;19929;-71
2022/10/05 08:21:42;;;;;;;;;;;;;;;;;;5026861;28;19925;-70
2022/10/05 08:24:09;;;;;;;;;;;;;;;;;;5027492;28;19929;-70
2022/10/05 08:26:36;;;;;;;;;;;;;;;;;;5032351;28;19936;-70
2022/10/05 08:29:03;;;;;;;;;;;;;;;;;;5034568;28;19929;-70
2022/10/05 08:31:30;;;;;;;;;;;;;;;;;;5028346;28;20008;-71
2022/10/05 08:33:58;;;;;;;;;;;;;;;;;;5023929;28;20453;-70
2022/10/05 08:36:25;;;;;;;;;;;;;;;;;;5029108;28;19937;-70
2022/10/05 08:38:53;;;;;;;;;;;;;;;;;;5035498;28;19940;-70
2022/10/05 08:41:20;;;;;;;;;;;;;;;;;;5027868;28;19931;-70
2022/10/05 08:43:47;;;;;;;;;;;;;;;;;;5032087;28;19925;-70
2022/10/05 08:46:16;;;;;;;;;;;;;;;;;;5027463;28;19936;-70
2022/10/05 08:48:43;;;;;;;;;;;;;;;;;;5032115;28;19968;-70
2022/10/05 08:51:10;;;;;;;;;;;;;;;;;;5031319;28;19928;-70
2022/10/05 08:53:37;;;;;;;;;;;;;;;;;;5026645;28;19937;-71
2022/10/05 08:56:04;;;;;;;;;;;;;;;;;;5026315;28;19925;-72
2022/10/05 08:58:31;;;;;;;;;;;;;;;;;;5025727;28;20311;-70
2022/10/05 09:00:58;;;;;;;;;;;;;;;;;;5026717;28;19937;-70
2022/10/05 09:03:25;;;;;;;;;;;;;;;;;;5026246;28;19929;-71
2022/10/05 09:05:52;;;;;;;;;;;;;;;;;;5024953;28;19932;-71
2022/10/05 09:08:20;;;;;;;;;;;;;;;;;;5028668;28;19929;-71
2022/10/05 09:10:47;;;;;;;;;;;;;;;;;;5031486;28;20036;-71
2022/10/05 09:13:14;;;;;;;;;;;;;;;;;;5024792;28;20367;-71
2022/10/05 09:15:42;;;;;;;;;;;;;;;;;;5023099;28;19929;-71
2022/10/05 09:18:09;;;;;;;;;;;;;;;;;;5026535;28;19933;-70
2022/10/05 09:20:36;;;;;;;;;;;;;;;;;;5027411;28;19925;-70
2022/10/05 09:23:03;;;;;;;;;;;;;;;;;;5031194;28;19936;-71
2022/10/05 09:25:30;;;;;;;;;;;;;;;;;;5028436;28;21188;-70
2022/10/05 09:27:57;;;;;;;;;;;;;;;;;;5027134;28;19949;-71
2022/10/05 09:30:25;;;;;;;;;;;;;;;;;;5025451;28;19933;-71
2022/10/05 09:32:52;;;;;;;;;;;;;;;;;;5024934;28;19941;-71
2022/10/05 09:35:19;;;;;;;;;;;;;;;;;;5027414;28;20399;-71
2022/10/05 09:37:46;;;;;;;;;;;;;;;;;;5026673;28;20055;-71
2022/10/05 09:40:13;;;;;;;;;;;;;;;;;;5027950;28;19941;-71
2022/10/05 09:42:40;;;;;;;;;;;;;;;;;;5026945;28;19929;-71
2022/10/05 09:45:07;;;;;;;;;;;;;;;;;;5026780;28;20568;-71
2022/10/05 09:47:34;;;;;;;;;;;;;;;;;;5021726;28;19925;-71
2022/10/05 09:50:01;;;;;;;;;;;;;;;;;;5026256;28;19929;-71
2022/10/05 09:52:28;;;;;;;;;;;;;;;;;;5026403;28;20383;-71
2022/10/05 09:55:00;;;;;;;;;;;;;;;;;;5024539;28;19956;-71
2022/10/05 09:57:27;;;;;;;;;;;;;;;;;;5024737;28;19929;-71
2022/10/05 09:59:54;;;;;;;;;;;;;;;;;;5027775;28;19951;-71
2022/10/05 10:02:21;;;;;;;;;;;;;;;;;;5026467;28;19929;-71
2022/10/05 10:04:48;;;;;;;;;;;;;;;;;;5026101;28;19952;-71
2022/10/05 10:07:15;;;;;;;;;;;;;;;;;;5029643;28;20517;-71
2022/10/05 10:09:42;;;;;;;;;;;;;;;;;;5028433;28;19944;-70
2022/10/05 10:12:09;;;;;;;;;;;;;;;;;;5029992;28;20318;-71
2022/10/05 10:14:37;;;;;;;;;;;;;;;;;;5030826;28;19925;-70
2022/10/05 10:17:05;;;;;;;;;;;;;;;;;;5022505;28;20010;-71
2022/10/05 10:19:32;;;;;;;;;;;;;;;;;;5031227;28;19925;-71
2022/10/05 10:21:59;;;;;;;;;;;;;;;;;;5029009;28;19929;-71
2022/10/05 10:24:26;;;;;;;;;;;;;;;;;;5026492;28;19948;-71
2022/10/05 10:26:53;;;;;;;;;;;;;;;;;;5026706;28;19929;-71
2022/10/05 10:29:20;;;;;;;;;;;;;;;;;;5024648;28;19930;-71
2022/10/05 10:31:47;;;;;;;;;;;;;;;;;;5025035;28;20318;-71
2022/10/05 10:34:15;;;;;;;;;;;;;;;;;;5025390;28;19936;-71
2022/10/05 10:36:42;;;;;;;;;;;;;;;;;;5027104;28;19935;-72
2022/10/05 10:39:09;;;;;;;;;;;;;;;;;;5029653;28;20052;-71
2022/10/05 10:41:36;;;;;;;;;;;;;;;;;;5028245;28;19928;-70
2022/10/05 10:44:03;;;;;;;;;;;;;;;;;;5029014;28;20334;-71
2022/10/05 10:46:30;;;;;;;;;;;;;;;;;;5021661;28;19929;-71
2022/10/05 10:48:58;;;;;;;;;;;;;;;;;;5027137;28;19933;-71
2022/10/05 10:51:25;;;;;;;;;;;;;;;;;;5027529;28;20008;-71
2022/10/05 10:53:52;;;;;;;;;;;;;;;;;;5024275;28;19929;-71
2022/10/05 10:56:19;;;;;;;;;;;;;;;;;;5024250;28;19936;-71
2022/10/05 10:58:46;;;;;;;;;;;;;;;;;;5024382;28;19929;-71
2022/10/05 11:01:13;;;;;;;;;;;;;;;;;;5030925;28;19936;-70
2022/10/05 11:03:40;;;;;;;;;;;;;;;;;;5030810;28;19941;-70
2022/10/05 11:06:07;;;;;;;;;;;;;;;;;;5034925;28;20383;-71
2022/10/05 11:08:34;;;;;;;;;;;;;;;;;;5028406;28;19925;-71
2022/10/05 11:11:01;;;;;;;;;;;;;;;;;;5030345;28;19948;-71
2022/10/05 11:13:28;;;;;;;;;;;;;;;;;;5023231;28;19929;-71
2022/10/05 11:15:55;;;;;;;;;;;;;;;;;;5033184;28;20336;-71
2022/10/05 11:18:22;;;;;;;;;;;;;;;;;;5028738;28;19933;-71
2022/10/05 11:20:50;;;;;;;;;;;;;;;;;;5027336;28;19929;-70
2022/10/05 11:23:17;;;;;;;;;;;;;;;;;;5028779;28;19976;-71
2022/10/05 11:25:44;;;;;;;;;;;;;;;;;;5030461;28;20311;-71
2022/10/05 11:28:12;;;;;;;;;;;;;;;;;;5027481;28;19933;-71
2022/10/05 11:30:39;;;;;;;;;;;;;;;;;;5029937;28;20299;-71
2022/10/05 11:33:10;;;;;;;;;;;;;;;;;;5028643;28;19929;-71
2022/10/05 11:35:37;;;;;;;;;;;;;;;;;;5029353;28;19925;-71
2022/10/05 11:38:04;;;;;;;;;;;;;;;;;;5028011;28;19956;-71
2022/10/05 11:40:32;;;;;;;;;;;;;;;;;;5029031;28;20311;-71
2022/10/05 11:42:59;;;;;;;;;;;;;;;;;;5028021;28;19976;-71
2022/10/05 11:45:26;;;;;;;;;;;;;;;;;;5029601;28;20303;-71
2022/10/05 11:47:53;;;;;;;;;;;;;;;;;;5028107;28;19933;-70
2022/10/05 11:50:20;;;;;;;;;;;;;;;;;;5031767;28;19928;-71
2022/10/05 11:52:47;;;;;;;;;;;;;;;;;;5028513;28;19952;-70
2022/10/05 11:55:14;;;;;;;;;;;;;;;;;;5029804;28;19929;-71
2022/10/05 11:57:41;;;;;;;;;;;;;;;;;;5027733;28;19965;-71
2022/10/05 12:00:08;;;;;;;;;;;;;;;;;;5026717;28;19925;-71
2022/10/05 12:02:35;;;;;;;;;;;;;;;;;;5032840;28;20483;-71
2022/10/05 12:05:02;;;;;;;;;;;;;;;;;;5026675;28;20399;-71
2022/10/05 12:07:29;;;;;;;;;;;;;;;;;;5027185;28;19971;-71
2022/10/05 12:10:16;;;;;;;;;;;;;;;;;;5029021;28;19944;-71
2022/10/05 12:12:44;;;;;;;;;;;;;;;;;;5026801;28;20411;-71
2022/10/05 12:15:11;;;;;;;;;;;;;;;;;;5029126;28;20334;-70
2022/10/05 12:17:38;;;;;;;;;;;;;;;;;;5026389;28;19944;-71
2022/10/05 12:20:05;;;;;;;;;;;;;;;;;;5027894;28;19933;-71
2022/10/05 12:22:32;;;;;;;;;;;;;;;;;;5027128;28;19941;-71
2022/10/05 12:25:00;;;;;;;;;;;;;;;;;;5029371;28;19986;-71
2022/10/05 12:27:27;;;;;;;;;;;;;;;;;;5027757;28;19944;-71
2022/10/05 12:29:54;;;;;;;;;;;;;;;;;;5027909;28;20362;-70
2022/10/05 12:32:21;;;;;;;;;;;;;;;;;;5026472;28;19929;-71
2022/10/05 12:34:48;;;;;;;;;;;;;;;;;;5029993;28;19931;-71
2022/10/05 12:37:15;;;;;;;;;;;;;;;;;;5028536;28;19929;-71
2022/10/05 12:39:42;;;;;;;;;;;;;;;;;;5028644;28;19933;-71
2022/10/05 12:42:09;;;;;;;;;;;;;;;;;;5031803;28;19928;-71
2022/10/05 12:44:36;;;;;;;;;;;;;;;;;;5030454;28;19937;-71
2022/10/05 12:47:03;;;;;;;;;;;;;;;;;;5025248;28;19933;-71
2022/10/05 12:49:30;;;;;;;;;;;;;;;;;;5028447;28;20438;-70
2022/10/05 12:51:58;;;;;;;;;;;;;;;;;;5029989;28;19987;-70
2022/10/05 12:54:25;;;;;;;;;;;;;;;;;;5026007;28;19925;-71
2022/10/05 12:56:52;;;;;;;;;;;;;;;;;;5033912;28;20016;-71
2022/10/05 12:59:19;;;;;;;;;;;;;;;;;;5031430;28;19933;-71
2022/10/05 13:01:46;;;;;;;;;;;;;;;;;;5028004;28;20472;-71
2022/10/05 13:04:13;;;;;;;;;;;;;;;;;;5027236;28;19929;-71
2022/10/05 13:06:40;;;;;;;;;;;;;;;;;;5027181;28;19928;-71
2022/10/05 13:09:09;;;;;;;;;;;;;;;;;;5030030;28;19936;-71
2022/10/05 13:11:36;;;;;;;;;;;;;;;;;;5027298;28;19932;-71
2022/10/05 13:14:03;;;;;;;;;;;;;;;;;;5026720;28;19929;-71
2022/10/05 13:16:30;;;;;;;;;;;;;;;;;;5026205;28;19932;-71
2022/10/05 13:18:57;;;;;;;;;;;;;;;;;;5025072;28;19929;-71
2022/10/05 13:21:24;;;;;;;;;;;;;;;;;;5024431;28;20020;-71
2022/10/05 13:23:51;;;;;;;;;;;;;;;;;;5025237;28;20084;-71
2022/10/05 13:26:18;;;;;;;;;;;;;;;;;;5025193;28;19952;-71
2022/10/05 13:28:45;;;;;;;;;;;;;;;;;;5029427;28;19925;-71
2022/10/05 13:31:12;;;;;;;;;;;;;;;;;;5022307;28;19932;-71
2022/10/05 13:33:39;;;;;;;;;;;;;;;;;;5028261;28;19933;-71
2022/10/05 13:36:08;;;;;;;;;;;;;;;;;;5027441;28;19944;-71
2022/10/05 13:38:35;;;;;;;;;;;;;;;;;;5023849;28;19929;-71
2022/10/05 13:41:02;;;;;;;;;;;;;;;;;;5025409;28;19933;-71
2022/10/05 13:43:29;;;;;;;;;;;;;;;;;;5024570;28;20445;-71
2022/10/05 13:45:56;;;;;;;;;;;;;;;;;;5025507;28;19929;-70
2022/10/05 13:48:24;;;;;;;;;;;;;;;;;;5025804;28;19973;-71
2022/10/05 13:50:51;;;;;;;;;;;;;;;;;;5025580;28;19987;-71
2022/10/05 13:53:18;;;;;;;;;;;;;;;;;;5025961;28;19929;-71
2022/10/05 13:55:45;;;;;;;;;;;;;;;;;;5025725;28;19933;-70
2022/10/05 13:58:12;;;;;;;;;;;;;;;;;;5026437;28;19929;-70
2022/10/05 14:00:39;;;;;;;;;;;;;;;;;;5024805;28;19925;-70
2022/10/05 14:03:06;;;;;;;;;;;;;;;;;;5025585;28;19931;-70
2022/10/05 14:05:33;;;;;;;;;;;;;;;;;;5023669;28;19926;-71
2022/10/05 14:08:00;;;;;;;;;;;;;;;;;;5025588;28;19932;-70
2022/10/05 14:10:27;;;;;;;;;;;;;;;;;;5025159;28;19933;-70
2022/10/05 14:12:54;;;;;;;;;;;;;;;;;;5025124;28;19936;-70
2022/10/05 14:15:21;;;;;;;;;;;;;;;;;;5027763;28;19933;-71
2022/10/05 14:17:50;;;;;;;;;;;;;;;;;;5027547;28;19983;-70
2022/10/05 14:20:17;;;;;;;;;;;;;;;;;;5024363;28;20363;-71
2022/10/05 14:22:44;;;;;;;;;;;;;;;;;;5031655;28;20279;-71
2022/10/05 14:25:12;;;;;;;;;;;;;;;;;;5025155;28;19941;-70
2022/10/05 14:27:39;;;;;;;;;;;;;;;;;;5027266;28;19925;-71
2022/10/05 14:30:06;;;;;;;;;;;;;;;;;;5025530;28;19975;-70
2022/10/05 14:32:34;;;;;;;;;;;;;;;;;;5034896;28;19929;-70
2022/10/05 14:35:03;;;;;;;;;;;;;;;;;;5032984;28;20400;-70
2022/10/05 14:37:30;;;;;;;;;;;;;;;;;;5031247;28;20022;-70
2022/10/05 14:39:57;;;;;;;;;;;;;;;;;;5030091;28;20578;-70
2022/10/05 14:42:24;;;;;;;;;;;;;;;;;;5034113;28;19925;-70
2022/10/05 14:44:51;;;;;;;;;;;;;;;;;;5033340;28;19974;-71
2022/10/05 14:47:18;;;;;;;;;;;;;;;;;;5031541;28;19929;-71
2022/10/05 14:49:46;;;;;;;;;;;;;;;;;;5029502;28;19929;-70
2022/10/05 14:52:13;;;;;;;;;;;;;;;;;;5029860;28;19936;-70
2022/10/05 14:54:40;;;;;;;;;;;;;;;;;;5032541;28;20344;-71
2022/10/05 14:57:08;;;;;;;;;;;;;;;;;;5029344;28;20294;-71
2022/10/05 14:59:35;;;;;;;;;;;;;;;;;;5028526;28;19925;-70
2022/10/05 15:02:02;;;;;;;;;;;;;;;;;;5029563;28;19929;-71
2022/10/05 15:04:30;;;;;;;;;;;;;;;;;;5028972;28;19925;-71
2022/10/05 15:06:57;;;;;;;;;;;;;;;;;;5028480;28;20026;-71
2022/10/05 15:09:24;;;;;;;;;;;;;;;;;;5029200;28;19925;-70
2022/10/05 15:11:52;;;;;;;;;;;;;;;;;;5023339;28;19929;-71
2022/10/05 15:14:18;;;;;;;;;;;;;;;;;;5033204;28;20269;-70
2022/10/05 15:16:46;;;;;;;;;;;;;;;;;;5027202;28;19947;-71
2022/10/05 15:19:14;;;;;;;;;;;;;;;;;;5032737;28;19964;-70
2022/10/05 15:21:42;;;;;;;;;;;;;;;;;;5026195;28;19963;-70
2022/10/05 15:24:09;;;;;;;;;;;;;;;;;;5027563;28;19981;-71
2022/10/05 15:26:36;;;;;;;;;;;;;;;;;;5029502;28;20020;-70
2022/10/05 15:29:03;;;;;;;;;;;;;;;;;;5032450;28;20334;-71
2022/10/05 15:31:30;;;;;;;;;;;;;;;;;;5028760;28;19929;-70
2022/10/05 15:33:57;;;;;;;;;;;;;;;;;;5031216;28;20358;-70
2022/10/05 15:36:24;;;;;;;;;;;;;;;;;;5026323;28;19946;-70
2022/10/05 15:38:51;;;;;;;;;;;;;;;;;;5029154;28;19933;-70
2022/10/05 15:41:18;;;;;;;;;;;;;;;;;;5026901;28;20295;-70
2022/10/05 15:43:45;;;;;;;;;;;;;;;;;;5028801;28;20282;-71
2022/10/05 15:46:13;;;;;;;;;;;;;;;;;;5030962;28;20146;-70
2022/10/05 15:48:41;;;;;;;;;;;;;;;;;;5030237;28;20435;-70
2022/10/05 15:51:09;;;;;;;;;;;;;;;;;;5026943;28;19929;-71
2022/10/05 15:53:36;;;;;;;;;;;;;;;;;;5029360;28;19925;-71
2022/10/05 15:56:03;;;;;;;;;;;;;;;;;;5029252;28;19971;-70
2022/10/05 15:58:30;;;;;;;;;;;;;;;;;;5028609;28;19929;-70
2022/10/05 16:00:57;;;;;;;;;;;;;;;;;;5029392;28;19929;-70
2022/10/05 16:03:24;;;;;;;;;;;;;;;;;;5028288;28;19944;-70
2022/10/05 16:08:52;;;;;;;;;;;;;;;;;;5026453;28;19929;-71
2022/10/05 16:11:20;;;;;;;;;;;;;;;;;;5027665;28;19979;-70
2022/10/05 16:13:47;;;;;;;;;;;;;;;;;;5034058;28;19931;-71
2022/10/05 16:16:14;;;;;;;;;;;;;;;;;;5028964;28;19929;-70
2022/10/05 16:18:41;;;;;;;;;;;;;;;;;;5029324;28;19973;-70
2022/10/05 16:21:10;;;;;;;;;;;;;;;;;;5025279;28;19933;-71
2022/10/05 16:23:37;;;;;;;;;;;;;;;;;;5029785;28;20439;-70
2022/10/05 16:26:04;;;;;;;;;;;;;;;;;;5032963;28;19929;-71
2022/10/05 16:28:31;;;;;;;;;;;;;;;;;;5030009;28;19925;-70
2022/10/05 16:30:58;;;;;;;;;;;;;;;;;;5028772;28;19936;-71
2022/10/05 16:33:28;;;;;;;;;;;;;;;;;;5031818;28;19929;-70
2022/10/05 16:35:55;;;;;;;;;;;;;;;;;;5034345;28;19925;-71
2022/10/05 16:38:23;;;;;;;;;;;;;;;;;;5030393;28;20391;-70
2022/10/05 16:40:50;;;;;;;;;;;;;;;;;;5031323;28;20015;-70
2022/10/05 16:43:17;;;;;;;;;;;;;;;;;;5027828;28;19933;-71
2022/10/05 16:45:44;;;;;;;;;;;;;;;;;;5029959;28;19940;-70
2022/10/05 16:48:11;;;;;;;;;;;;;;;;;;5028259;28;19929;-71
2022/10/05 16:50:38;;;;;;;;;;;;;;;;;;5029505;28;19936;-71
2022/10/05 16:53:05;;;;;;;;;;;;;;;;;;5030423;28;19932;-71